Bay Sprit I I — WDE9083 — position and weather

sailwx.info

Track history (hours):
 
Tides and Currents Weather Stations Pressure Air Temp Water Temp Dewpoint Dewpoint Depression Visibility Wind Speed Wind Dir Waves Ship Positions

Bay Sprit I I

Owner: The Florida Aqurium, Brandon, FL. More information available from US FCC via Universal Licensing System and Coast Guard Vessel Documentation Center.

Last reported at 2018-Jan-19 21:04 UTC. Time now 2018-Jan-20 17:23 UTC.
Position N 27°57' W 082°27'.

Length 22 m.

Type: Passenger vessel. MMSI: 367413230.

Date/timePositionNaut miles runAvg speedWind from/ knotsBaromVisibWave heightAir tempDewpointWater temp
2018-Jan-19 21:04N 27°57' W 082°27'0 0.0
2018-Jan-19 20:58N 27°57' W 082°27'3 7.2
2018-Jan-19 20:30N 27°53' W 082°26'1 2.4
2018-Jan-19 19:59N 27°54' W 082°27'2 4.3
2018-Jan-19 19:29N 27°57' W 082°27'0 0.0
2018-Jan-19 18:59N 27°57' W 082°27'0 0.0
2018-Jan-19 18:29N 27°57' W 082°27'0 0.0
2018-Jan-19 17:59N 27°57' W 082°27'0 0.0
2018-Jan-19 17:29N 27°57' W 082°27'0 0.0
2018-Jan-19 16:59N 27°57' W 082°27'2 4.6
2018-Jan-19 16:30N 27°55' W 082°26'1 2.7
2018-Jan-19 16:00N 27°55' W 082°27'1 2.2
2018-Jan-19 15:30N 27°57' W 082°27'0 0.0
2018-Jan-19 15:00N 27°57' W 082°27'0 0.0
2018-Jan-19 14:30N 27°57' W 082°27'0 0.0
2018-Jan-19 14:00N 27°57' W 082°27'0 0.0
2018-Jan-19 13:30N 27°57' W 082°27'0 0.0
2018-Jan-18 20:53N 27°57' W 082°27'3 6.5
2018-Jan-18 20:29N 27°54' W 082°26'1 1.1
2018-Jan-18 19:57N 27°53' W 082°26'3 6.1
2018-Jan-18 19:30N 27°56' W 082°27'  
2018-Jan-11 20:48N 27°57' W 082°27'1 4.3
2018-Jan-11 20:30N 27°55' W 082°27'3 6.6
2018-Jan-11 19:59N 27°52' W 082°27'5 9.6
2018-Jan-11 19:30N 27°57' W 082°27'0 0.0
2018-Jan-10 20:56N 27°57' W 082°27'2 4.5
2018-Jan-10 20:30N 27°55' W 082°26'2 3.2
2018-Jan-10 20:00N 27°53' W 082°27'3 6.6
2018-Jan-10 19:28N 27°57' W 082°27'0 0.0
2018-Jan-10 18:58N 27°57' W 082°27'0 0.0
2018-Jan-10 18:28N 27°57' W 082°27'0 0.0
2018-Jan-10 17:58N 27°57' W 082°27'0 0.0
2018-Jan-10 17:28N 27°57' W 082°27'0 0.0
2018-Jan-10 16:58N 27°57' W 082°27'0 0.0
2018-Jan-10 16:28N 27°57' W 082°27'0 0.0
2018-Jan-10 15:58N 27°57' W 082°27'0 0.0
2018-Jan-10 15:28N 27°57' W 082°27'2 5.0
2018-Jan-10 14:59N 27°54' W 082°26'1 2.9
2018-Jan-10 14:30N 27°55' W 082°27'  
Track history (hours):
 
Tides and Currents Weather Stations Pressure Air Temp Water Temp Dewpoint Dewpoint Depression Visibility Wind Speed Wind Dir Waves Ship Positions

Bay Sprit I I

Owner: The Florida Aqurium, Brandon, FL. More information available from US FCC via Universal Licensing System and Coast Guard Vessel Documentation Center.

Last reported at 2018-Jan-19 21:04 UTC. Time now 2018-Jan-20 17:23 UTC.
Position N 27°57' W 082°27'.

Length 22 m.

Type: Passenger vessel. MMSI: 367413230.

Date/timePositionNaut miles runAvg speedWind from/ knotsBaromVisibWave heightAir tempDewpointWater temp
2018-Jan-19 21:04N 27°57' W 082°27'0 0.0
2018-Jan-19 20:58N 27°57' W 082°27'3 7.2
2018-Jan-19 20:30N 27°53' W 082°26'1 2.4
2018-Jan-19 19:59N 27°54' W 082°27'2 4.3
2018-Jan-19 19:29N 27°57' W 082°27'0 0.0
2018-Jan-19 18:59N 27°57' W 082°27'0 0.0
2018-Jan-19 18:29N 27°57' W 082°27'0 0.0
2018-Jan-19 17:59N 27°57' W 082°27'0 0.0
2018-Jan-19 17:29N 27°57' W 082°27'0 0.0
2018-Jan-19 16:59N 27°57' W 082°27'2 4.6
2018-Jan-19 16:30N 27°55' W 082°26'1 2.7
2018-Jan-19 16:00N 27°55' W 082°27'1 2.2
2018-Jan-19 15:30N 27°57' W 082°27'0 0.0
2018-Jan-19 15:00N 27°57' W 082°27'0 0.0
2018-Jan-19 14:30N 27°57' W 082°27'0 0.0
2018-Jan-19 14:00N 27°57' W 082°27'0 0.0
2018-Jan-19 13:30N 27°57' W 082°27'0 0.0
2018-Jan-18 20:53N 27°57' W 082°27'3 6.5
2018-Jan-18 20:29N 27°54' W 082°26'1 1.1
2018-Jan-18 19:57N 27°53' W 082°26'3 6.1
2018-Jan-18 19:30N 27°56' W 082°27'  
2018-Jan-11 20:48N 27°57' W 082°27'1 4.3
2018-Jan-11 20:30N 27°55' W 082°27'3 6.6
2018-Jan-11 19:59N 27°52' W 082°27'5 9.6
2018-Jan-11 19:30N 27°57' W 082°27'0 0.0
2018-Jan-10 20:56N 27°57' W 082°27'2 4.5
2018-Jan-10 20:30N 27°55' W 082°26'2 3.2
2018-Jan-10 20:00N 27°53' W 082°27'3 6.6
2018-Jan-10 19:28N 27°57' W 082°27'0 0.0
2018-Jan-10 18:58N 27°57' W 082°27'0 0.0
2018-Jan-10 18:28N 27°57' W 082°27'0 0.0
2018-Jan-10 17:58N 27°57' W 082°27'0 0.0
2018-Jan-10 17:28N 27°57' W 082°27'0 0.0
2018-Jan-10 16:58N 27°57' W 082°27'0 0.0
2018-Jan-10 16:28N 27°57' W 082°27'0 0.0
2018-Jan-10 15:58N 27°57' W 082°27'0 0.0
2018-Jan-10 15:28N 27°57' W 082°27'2 5.0
2018-Jan-10 14:59N 27°54' W 082°26'1 2.9
2018-Jan-10 14:30N 27°55' W 082°27'  

Dump ship's entire track history